createdAt,value
2019-04-30T00:00:42.566Z,75.19
2019-04-30T00:01:42.579Z,75.36
2019-04-30T00:02:42.543Z,75.15
2019-04-30T00:03:42.542Z,75.67
2019-04-30T00:04:42.513Z,75.29
2019-04-30T00:05:42.499Z,75.36
2019-04-30T00:06:42.507Z,75.57
2019-04-30T00:07:42.476Z,75.49
2019-04-30T00:08:42.476Z,75.36
2019-04-30T00:09:42.466Z,75.57
2019-04-30T00:10:42.447Z,75.46
2019-04-30T00:11:42.465Z,75.15
2019-04-30T00:12:42.425Z,75.36
2019-04-30T00:13:42.407Z,75.57
2019-04-30T00:14:42.424Z,75.26
2019-04-30T00:15:42.404Z,75.05
2019-04-30T00:16:42.388Z,75.70
2019-04-30T00:17:42.384Z,76.01
2019-04-30T00:18:54.851Z,75.60
2019-04-30T00:19:43.373Z,75.60
2019-04-30T00:20:44.744Z,75.60
2019-04-30T00:21:42.327Z,75.67
2019-04-30T00:22:47.182Z,75.49
2019-04-30T00:23:43.305Z,75.91
2019-04-30T00:24:46.787Z,75.60
2019-04-30T00:25:43.277Z,75.81
2019-04-30T00:26:45.394Z,75.60
2019-04-30T00:27:43.261Z,75.81
2019-04-30T00:28:46.246Z,75.60
2019-04-30T00:29:43.269Z,75.81
2019-04-30T00:30:44.009Z,75.70
2019-04-30T00:31:42.218Z,75.81
2019-04-30T00:32:43.759Z,75.81
2019-04-30T00:33:42.202Z,75.81
2019-04-30T00:34:42.210Z,76.22
2019-04-30T00:35:42.177Z,76.12
2019-04-30T00:36:42.156Z,76.22
2019-04-30T00:37:42.148Z,76.22
2019-04-30T00:38:42.134Z,76.32
2019-04-30T00:39:44.361Z,76.12
2019-04-30T00:40:44.689Z,76.22
2019-04-30T00:41:44.080Z,76.22
2019-04-30T00:42:43.104Z,76.46
2019-04-30T00:43:47.138Z,75.95
2019-04-30T00:44:43.101Z,76.05
2019-04-30T00:45:44.904Z,75.84
2019-04-30T00:46:43.053Z,76.36
2019-04-30T00:47:44.499Z,76.98
2019-04-30T00:48:43.027Z,77.08
2019-04-30T00:49:42.019Z,77.08
2019-04-30T00:50:42.020Z,77.08
2019-04-30T00:51:41.987Z,76.87
2019-04-30T00:52:41.996Z,77.08
2019-04-30T00:53:43.810Z,77.08
2019-04-30T00:54:42.964Z,76.87
2019-04-30T00:55:44.958Z,76.77
2019-04-30T00:56:42.935Z,77.60
2019-04-30T00:57:43.963Z,77.19
2019-04-30T00:58:41.907Z,77.08
2019-04-30T00:59:44.597Z,77.81
2019-04-30T01:00:42.919Z,77.53
2019-04-30T01:01:43.737Z,76.77
2019-04-30T01:02:42.871Z,77.74
2019-04-30T01:03:46.377Z,77.43
2019-04-30T01:04:44.870Z,77.33
2019-04-30T01:05:44.488Z,77.64
2019-04-30T01:06:42.831Z,77.43
2019-04-30T01:07:48.671Z,77.74
2019-04-30T01:08:42.804Z,77.53
2019-04-30T01:09:46.591Z,77.64
2019-04-30T01:10:42.799Z,77.84
2019-04-30T01:11:46.777Z,77.53
2019-04-30T01:12:47.321Z,77.84
2019-04-30T01:13:50.164Z,77.53
2019-04-30T01:14:42.745Z,77.64
2019-04-30T01:15:44.056Z,77.74
2019-04-30T01:16:42.715Z,77.84
2019-04-30T01:17:45.289Z,78.08
2019-04-30T01:18:42.706Z,78.08
2019-04-30T01:19:41.689Z,77.47
2019-04-30T01:20:41.688Z,77.47
2019-04-30T01:21:46.994Z,78.29
2019-04-30T01:22:42.655Z,78.15
2019-04-30T01:23:48.205Z,77.22
2019-04-30T01:24:42.636Z,78.08
2019-04-30T01:25:43.089Z,78.70
2019-04-30T01:26:42.613Z,77.87
2019-04-30T01:27:45.851Z,77.98
2019-04-30T01:28:42.586Z,77.87
2019-04-30T01:29:44.378Z,77.98
2019-04-30T01:30:41.593Z,78.29
2019-04-30T01:31:41.552Z,77.67
2019-04-30T01:32:41.551Z,77.98
2019-04-30T01:33:41.546Z,77.77
2019-04-30T01:34:44.135Z,78.60
2019-04-30T01:35:42.539Z,78.70
2019-04-30T01:36:43.484Z,79.02
2019-04-30T01:37:42.490Z,78.60
2019-04-30T01:38:44.840Z,78.53
2019-04-30T01:39:42.478Z,78.60
2019-04-30T01:40:42.807Z,78.95
2019-04-30T01:41:42.458Z,79.22
2019-04-30T01:42:48.022Z,78.70
2019-04-30T01:43:42.419Z,78.39
2019-04-30T01:44:43.479Z,78.60
2019-04-30T01:45:42.414Z,78.95
2019-04-30T01:46:43.270Z,78.74
2019-04-30T01:47:42.400Z,78.85
2019-04-30T01:48:43.725Z,78.74
2019-04-30T01:49:44.765Z,78.64
2019-04-30T01:50:42.148Z,78.74
2019-04-30T01:51:41.337Z,78.85
2019-04-30T01:52:41.336Z,78.64
2019-04-30T01:53:43.633Z,78.70
2019-04-30T01:54:41.303Z,78.70
2019-04-30T01:55:41.496Z,78.53
2019-04-30T01:56:41.313Z,78.53
2019-04-30T01:57:41.277Z,78.95
2019-04-30T01:58:41.267Z,78.85
2019-04-30T01:59:41.262Z,78.64
2019-04-30T02:00:41.245Z,78.85
2019-04-30T02:01:41.245Z,78.95
2019-04-30T02:02:41.220Z,78.85
2019-04-30T02:03:41.215Z,79.26
2019-04-30T02:04:41.203Z,78.74
2019-04-30T02:05:41.197Z,78.85
2019-04-30T02:06:41.182Z,78.95
2019-04-30T02:07:41.152Z,79.05
2019-04-30T02:08:41.160Z,78.85
2019-04-30T02:09:41.146Z,79.36
2019-04-30T02:10:41.131Z,79.47
2019-04-30T02:11:41.150Z,78.95
2019-04-30T02:12:41.099Z,79.16
2019-04-30T02:13:41.095Z,78.95
2019-04-30T02:14:41.073Z,79.67
2019-04-30T02:15:41.062Z,78.95
2019-04-30T02:16:41.097Z,79.16
2019-04-30T02:17:41.059Z,79.16
2019-04-30T02:18:41.052Z,79.26
2019-04-30T02:19:41.034Z,79.09
2019-04-30T02:20:41.015Z,79.57
2019-04-30T02:21:41.008Z,79.81
2019-04-30T02:22:41.029Z,79.60
2019-04-30T02:23:40.999Z,79.40
2019-04-30T02:24:40.976Z,79.50
2019-04-30T02:25:40.968Z,79.50
2019-04-30T02:26:40.955Z,79.40
2019-04-30T02:27:40.952Z,79.91
2019-04-30T02:28:40.940Z,79.71
2019-04-30T02:29:40.922Z,79.50
2019-04-30T02:30:40.915Z,79.57
2019-04-30T02:31:40.978Z,79.81
2019-04-30T02:32:40.884Z,79.50
2019-04-30T02:33:40.884Z,80.02
2019-04-30T02:34:44.042Z,80.02
2019-04-30T02:35:40.920Z,79.91
2019-04-30T02:36:40.836Z,79.91
2019-04-30T02:37:43.556Z,79.71
2019-04-30T02:38:40.836Z,80.22
2019-04-30T02:39:40.817Z,79.85
2019-04-30T02:40:42.528Z,80.22
2019-04-30T02:41:41.363Z,80.43
2019-04-30T02:42:40.804Z,79.74
2019-04-30T02:43:40.775Z,79.60
2019-04-30T02:44:40.821Z,79.85
2019-04-30T02:45:40.758Z,80.12
2019-04-30T02:46:40.794Z,79.33
2019-04-30T02:47:40.760Z,79.71
2019-04-30T02:48:40.718Z,79.54
2019-04-30T02:49:40.699Z,79.64
2019-04-30T02:50:40.678Z,80.16
2019-04-30T02:51:40.676Z,79.64
2019-04-30T02:52:40.690Z,79.85
2019-04-30T02:53:40.694Z,80.16
2019-04-30T02:54:40.645Z,79.95
2019-04-30T02:55:40.630Z,79.95
2019-04-30T02:56:40.639Z,80.16
2019-04-30T02:57:40.632Z,80.16
2019-04-30T02:58:41.055Z,80.57
2019-04-30T02:59:40.603Z,80.36
2019-04-30T03:00:40.576Z,80.57
2019-04-30T03:01:40.711Z,80.16
2019-04-30T03:02:40.581Z,80.16
2019-04-30T03:03:42.629Z,80.16
2019-04-30T03:04:40.552Z,80.26
2019-04-30T03:05:40.541Z,80.05
2019-04-30T03:06:40.714Z,80.16
2019-04-30T03:07:40.894Z,80.05
2019-04-30T03:08:40.541Z,79.85
2019-04-30T03:09:40.483Z,79.64
2019-04-30T03:10:40.475Z,80.05
2019-04-30T03:11:41.051Z,80.30
2019-04-30T03:12:40.855Z,79.58
2019-04-30T03:13:42.723Z,79.99
2019-04-30T03:14:40.428Z,79.88
2019-04-30T03:15:40.416Z,80.19
2019-04-30T03:16:40.418Z,79.88
2019-04-30T03:17:40.429Z,79.88
2019-04-30T03:18:40.400Z,79.68
2019-04-30T03:19:40.462Z,79.68
2019-04-30T03:20:40.359Z,79.47
2019-04-30T03:21:40.546Z,79.68
2019-04-30T03:22:40.340Z,79.78
2019-04-30T03:23:40.371Z,79.37
2019-04-30T03:24:42.860Z,79.37
2019-04-30T03:25:40.646Z,79.27
2019-04-30T03:26:40.593Z,79.78
2019-04-30T03:27:42.498Z,79.99
2019-04-30T03:28:40.309Z,79.47
2019-04-30T03:29:40.731Z,79.16
2019-04-30T03:30:41.974Z,79.27
2019-04-30T03:31:44.344Z,79.58
2019-04-30T03:32:43.040Z,79.16
2019-04-30T03:33:42.439Z,79.27
2019-04-30T03:34:41.947Z,79.68
2019-04-30T03:35:46.717Z,79.37
2019-04-30T03:36:41.203Z,79.47
2019-04-30T03:37:40.183Z,78.96
2019-04-30T03:38:42.731Z,78.85
2019-04-30T03:39:40.253Z,79.47
2019-04-30T03:40:40.579Z,79.16
2019-04-30T03:41:41.512Z,79.47
2019-04-30T03:42:40.123Z,79.37
2019-04-30T03:43:40.264Z,79.20
2019-04-30T03:44:40.354Z,78.75
2019-04-30T03:45:40.408Z,78.68
2019-04-30T03:46:40.554Z,78.85
2019-04-30T03:47:43.109Z,79.06
2019-04-30T03:48:40.072Z,79.27
2019-04-30T03:49:40.459Z,79.27
2019-04-30T03:50:50.409Z,79.06
2019-04-30T03:51:41.035Z,78.89
2019-04-30T03:52:40.013Z,79.16
2019-04-30T03:53:42.762Z,78.96
2019-04-30T03:54:40.878Z,79.06
2019-04-30T03:55:40.326Z,78.75
2019-04-30T03:56:39.996Z,79.06
2019-04-30T03:57:40.107Z,78.85
2019-04-30T03:58:39.963Z,78.85
2019-04-30T03:59:40.118Z,79.16
2019-04-30T04:00:42.425Z,78.89
2019-04-30T04:01:40.037Z,79.10
2019-04-30T04:02:40.698Z,78.75
2019-04-30T04:03:42.049Z,78.02
2019-04-30T04:04:39.915Z,78.12
2019-04-30T04:05:40.141Z,77.92
2019-04-30T04:06:39.864Z,78.12
2019-04-30T04:07:39.847Z,78.85
2019-04-30T04:08:43.224Z,78.44
2019-04-30T04:09:40.162Z,77.40
2019-04-30T04:10:40.444Z,78.12
2019-04-30T04:11:39.813Z,77.81
2019-04-30T04:12:39.799Z,77.88
2019-04-30T04:13:40.127Z,77.29
2019-04-30T04:14:39.813Z,77.78
2019-04-30T04:15:40.160Z,77.78
2019-04-30T04:16:41.115Z,77.36
2019-04-30T04:17:39.972Z,77.57
2019-04-30T04:18:40.319Z,77.78
2019-04-30T04:19:39.726Z,77.26
2019-04-30T04:20:42.931Z,77.26
2019-04-30T04:21:39.707Z,76.29
2019-04-30T04:22:40.307Z,75.74
2019-04-30T04:23:40.061Z,75.81
2019-04-30T04:24:40.291Z,75.09
2019-04-30T04:25:40.048Z,74.88
2019-04-30T04:26:43.382Z,75.19
2019-04-30T04:27:39.648Z,73.60
2019-04-30T04:28:43.162Z,73.50
2019-04-30T04:29:40.345Z,73.29
2019-04-30T04:30:42.847Z,73.77
2019-04-30T04:31:39.614Z,72.74
2019-04-30T04:32:40.711Z,73.02
2019-04-30T04:33:39.719Z,72.30
2019-04-30T04:34:40.285Z,72.26
2019-04-30T04:35:39.601Z,71.23
2019-04-30T04:36:43.326Z,71.54
2019-04-30T04:37:39.676Z,71.51
2019-04-30T04:38:40.331Z,70.17
2019-04-30T04:39:42.084Z,69.93
2019-04-30T04:40:40.066Z,69.72
2019-04-30T04:41:39.994Z,69.38
2019-04-30T04:42:39.768Z,68.49
2019-04-30T04:43:40.190Z,67.25
2019-04-30T04:44:40.041Z,66.30
2019-04-30T04:45:40.495Z,66.40
2019-04-30T04:46:40.174Z,66.34
2019-04-30T04:47:40.232Z,65.31
2019-04-30T04:48:39.601Z,64.25
2019-04-30T04:49:39.820Z,64.56
2019-04-30T04:50:39.988Z,63.09
2019-04-30T04:51:42.325Z,63.09
2019-04-30T04:52:39.694Z,62.14
2019-04-30T04:53:40.225Z,61.90
2019-04-30T04:54:39.975Z,61.67
2019-04-30T04:55:40.015Z,60.75
2019-04-30T04:56:39.961Z,60.61
2019-04-30T04:57:40.026Z,59.33
2019-04-30T04:58:40.157Z,59.25
2019-04-30T04:59:42.353Z,58.81
2019-04-30T05:00:39.299Z,59.30
2019-04-30T05:01:39.274Z,58.79
2019-04-30T05:02:39.746Z,58.45
2019-04-30T05:03:39.867Z,58.07
2019-04-30T05:04:40.084Z,57.64
2019-04-30T05:05:39.889Z,58.15
2019-04-30T05:06:39.572Z,57.84
2019-04-30T05:07:39.958Z,57.40
2019-04-30T05:08:39.688Z,56.79
2019-04-30T05:09:39.706Z,56.99
2019-04-30T05:10:39.280Z,56.79
2019-04-30T05:11:39.547Z,56.87
2019-04-30T05:12:39.866Z,55.18
2019-04-30T05:13:39.140Z,54.57
2019-04-30T05:14:39.122Z,55.36
2019-04-30T05:15:39.116Z,54.95
2019-04-30T05:16:39.130Z,53.49
2019-04-30T05:17:39.871Z,53.36
2019-04-30T05:18:39.222Z,52.73
2019-04-30T05:19:39.073Z,52.12
2019-04-30T05:20:41.285Z,52.40
2019-04-30T05:21:42.709Z,51.76
2019-04-30T05:22:40.061Z,51.15
2019-04-30T05:23:41.076Z,51.03
2019-04-30T05:24:40.849Z,49.48
2019-04-30T05:25:39.095Z,50.42
2019-04-30T05:26:38.999Z,50.72
2019-04-30T05:27:39.352Z,50.19
2019-04-30T05:28:39.424Z,50.06
2019-04-30T05:29:38.949Z,48.84
2019-04-30T05:30:39.344Z,49.10
2019-04-30T05:31:38.961Z,48.21
2019-04-30T05:32:39.190Z,49.81
2019-04-30T05:33:39.140Z,48.47
2019-04-30T05:34:38.902Z,48.19
2019-04-30T05:35:38.996Z,48.47
2019-04-30T05:36:39.259Z,47.10
2019-04-30T05:37:38.880Z,46.14
2019-04-30T05:38:39.286Z,46.22
2019-04-30T05:39:39.107Z,44.90
2019-04-30T05:40:39.846Z,44.93
2019-04-30T05:41:41.173Z,45.05
2019-04-30T05:42:38.911Z,45.33
2019-04-30T05:43:38.804Z,45.17
2019-04-30T05:44:39.581Z,43.73
2019-04-30T05:45:39.071Z,43.08
2019-04-30T05:46:39.757Z,40.95
2019-04-30T05:47:39.040Z,42.58
2019-04-30T05:48:39.699Z,41.89
2019-04-30T05:49:38.949Z,42.07
2019-04-30T05:50:39.095Z,41.46
2019-04-30T05:51:38.907Z,41.55
2019-04-30T05:52:39.753Z,41.52
2019-04-30T05:53:39.365Z,41.64
2019-04-30T05:54:39.124Z,40.64
2019-04-30T05:55:39.531Z,41.09
2019-04-30T05:56:39.888Z,42.92
2019-04-30T05:57:52.430Z,42.90
2019-04-30T05:58:39.919Z,41.69
2019-04-30T05:59:38.850Z,41.97
2019-04-30T06:00:40.030Z,41.32
2019-04-30T06:01:39.511Z,41.02
2019-04-30T06:02:39.937Z,40.39
2019-04-30T06:03:38.696Z,40.19
2019-04-30T06:04:38.793Z,40.39
2019-04-30T06:05:39.428Z,40.50
2019-04-30T06:06:38.965Z,39.94
2019-04-30T06:07:39.482Z,39.53
2019-04-30T06:08:39.285Z,39.11
2019-04-30T06:09:38.640Z,38.69
2019-04-30T06:10:39.619Z,37.41
2019-04-30T06:11:39.316Z,39.41
2019-04-30T06:12:39.288Z,37.76
2019-04-30T06:13:40.351Z,37.38
2019-04-30T06:14:48.649Z,36.79
2019-04-30T06:15:39.441Z,37.71
2019-04-30T06:16:39.335Z,37.58
2019-04-30T06:17:39.128Z,37.87
2019-04-30T06:18:38.612Z,36.52
2019-04-30T06:19:39.191Z,35.93
2019-04-30T06:20:38.669Z,35.13
2019-04-30T06:21:39.108Z,35.75
2019-04-30T06:22:38.633Z,36.13
2019-04-30T06:23:39.372Z,35.83
2019-04-30T06:24:39.545Z,35.38
2019-04-30T06:25:55.540Z,35.05
2019-04-30T06:26:39.414Z,33.86
2019-04-30T06:27:38.693Z,33.23
2019-04-30T06:28:39.047Z,33.44
2019-04-30T06:29:39.080Z,33.64
2019-04-30T06:30:39.640Z,32.84
2019-04-30T06:31:40.395Z,33.34
2019-04-30T06:32:39.491Z,32.29
2019-04-30T06:33:38.865Z,32.47
2019-04-30T06:34:41.622Z,32.54
2019-04-30T06:35:39.134Z,31.15
2019-04-30T06:36:41.968Z,31.46
2019-04-30T06:37:39.220Z,31.07
2019-04-30T06:38:38.667Z,31.38
2019-04-30T06:39:38.607Z,32.29
2019-04-30T06:40:39.113Z,32.09
2019-04-30T06:41:40.811Z,32.47
2019-04-30T06:42:39.280Z,31.23
2019-04-30T06:43:38.689Z,31.21
2019-04-30T06:44:41.642Z,30.48
2019-04-30T06:45:38.818Z,30.07
2019-04-30T06:46:38.723Z,28.94
2019-04-30T06:47:38.929Z,28.34
2019-04-30T06:48:39.232Z,28.16
2019-04-30T06:49:39.233Z,29.08
2019-04-30T06:50:39.306Z,28.78
2019-04-30T06:51:38.955Z,28.91
2019-04-30T06:52:39.044Z,29.52
2019-04-30T06:53:39.162Z,28.92
2019-04-30T06:54:39.682Z,29.43
2019-04-30T06:55:39.237Z,29.01
2019-04-30T06:56:38.726Z,28.71
2019-04-30T06:57:38.433Z,28.31
2019-04-30T06:58:38.830Z,28.92
2019-04-30T06:59:39.537Z,29.22
2019-04-30T07:00:39.962Z,28.01
2019-04-30T07:01:38.865Z,27.70
2019-04-30T07:02:39.306Z,27.80
2019-04-30T07:03:38.839Z,27.41
2019-04-30T07:04:40.001Z,27.09
2019-04-30T07:05:38.952Z,27.81
2019-04-30T07:06:43.893Z,27.41
2019-04-30T07:07:41.574Z,28.23
2019-04-30T07:08:42.457Z,27.94
2019-04-30T07:09:51.479Z,29.06
2019-04-30T07:10:40.358Z,28.95
2019-04-30T07:11:39.236Z,28.23
2019-04-30T07:12:38.988Z,26.83
2019-04-30T07:13:39.500Z,28.25
2019-04-30T07:14:41.400Z,29.06
2019-04-30T07:15:39.426Z,29.36
2019-04-30T07:16:39.625Z,29.03
2019-04-30T07:17:40.554Z,26.81
2019-04-30T07:18:38.763Z,27.42
2019-04-30T07:19:51.109Z,27.42
2019-04-30T07:20:38.841Z,28.31
2019-04-30T07:21:42.885Z,27.17
2019-04-30T07:22:45.474Z,25.47
2019-04-30T07:23:38.841Z,25.97
2019-04-30T07:24:39.401Z,25.55
2019-04-30T07:25:39.128Z,25.35
2019-04-30T07:26:38.905Z,24.51
2019-04-30T07:27:39.938Z,23.91
2019-04-30T07:28:44.763Z,24.81
2019-04-30T07:29:39.296Z,24.62
2019-04-30T07:30:39.466Z,25.30
2019-04-30T07:31:39.261Z,23.99
2019-04-30T07:32:38.729Z,24.38
2019-04-30T07:33:39.478Z,23.39
2019-04-30T07:34:39.510Z,23.60
2019-04-30T07:35:39.762Z,23.71
2019-04-30T07:36:48.438Z,23.52
2019-04-30T07:37:39.170Z,23.90
2019-04-30T07:38:45.692Z,23.08
2019-04-30T07:39:39.100Z,23.47
2019-04-30T07:40:39.014Z,23.75
2019-04-30T07:41:37.543Z,21.83
2019-04-30T07:42:44.445Z,22.82
2019-04-30T07:43:39.248Z,20.90
2019-04-30T07:44:39.395Z,22.52
2019-04-30T07:45:39.293Z,21.33
2019-04-30T07:46:41.073Z,21.42
2019-04-30T07:47:39.535Z,22.42
2019-04-30T07:48:39.969Z,21.43
2019-04-30T07:49:49.774Z,21.32
2019-04-30T07:50:41.120Z,22.89
2019-04-30T07:51:40.819Z,20.49
2019-04-30T07:52:55.388Z,20.86
2019-04-30T07:53:40.375Z,19.66
2019-04-30T07:54:39.549Z,19.26
2019-04-30T07:55:39.288Z,19.68
2019-04-30T07:56:40.303Z,18.99
2019-04-30T07:57:40.138Z,20.57
2019-04-30T07:58:39.098Z,20.57
2019-04-30T07:59:39.525Z,20.87
2019-04-30T08:00:40.083Z,20.36
2019-04-30T08:01:37.292Z,20.04
2019-04-30T08:02:41.528Z,20.23
2019-04-30T08:03:39.583Z,20.01
2019-04-30T08:04:37.302Z,19.42
2019-04-30T08:05:40.010Z,18.52
2019-04-30T08:06:37.251Z,18.63
2019-04-30T08:07:39.080Z,19.51
2019-04-30T08:08:37.262Z,18.92
2019-04-30T08:09:41.563Z,18.63
2019-04-30T08:10:39.371Z,18.82
2019-04-30T08:11:41.895Z,18.92
2019-04-30T08:12:42.407Z,17.94
2019-04-30T08:13:40.734Z,17.76
2019-04-30T08:14:38.974Z,18.65
2019-04-30T08:15:37.139Z,18.83
2019-04-30T08:16:38.644Z,17.85
2019-04-30T08:17:38.863Z,19.32
2019-04-30T08:18:39.129Z,17.55
2019-04-30T08:19:38.493Z,17.64
2019-04-30T08:20:39.205Z,19.69
2019-04-30T08:21:38.732Z,17.61
2019-04-30T08:22:37.088Z,17.91
2019-04-30T08:23:37.761Z,17.60
2019-04-30T08:24:38.982Z,18.27
2019-04-30T08:25:38.996Z,17.49
2019-04-30T08:26:37.066Z,16.21
2019-04-30T08:27:39.139Z,17.98
2019-04-30T08:28:38.643Z,16.50
2019-04-30T08:29:37.004Z,16.40
2019-04-30T08:30:39.011Z,18.07
2019-04-30T08:31:40.644Z,16.52
2019-04-30T08:32:38.693Z,18.15
2019-04-30T08:33:36.967Z,17.36
2019-04-30T08:34:39.228Z,18.49
2019-04-30T08:35:36.950Z,18.52
2019-04-30T08:36:38.684Z,19.31
2019-04-30T08:37:38.555Z,18.90
2019-04-30T08:38:36.938Z,18.88
2019-04-30T08:39:36.934Z,18.66
2019-04-30T08:40:36.903Z,18.74
2019-04-30T08:41:36.889Z,16.85
2019-04-30T08:42:38.436Z,17.12
2019-04-30T08:43:36.872Z,17.02
2019-04-30T08:44:36.877Z,16.20
2019-04-30T08:45:38.586Z,15.51
2019-04-30T08:46:38.674Z,16.28
2019-04-30T08:47:39.121Z,15.39
2019-04-30T08:48:49.481Z,15.38
2019-04-30T08:49:39.971Z,14.09
2019-04-30T08:50:36.827Z,13.51
2019-04-30T08:51:38.618Z,13.91
2019-04-30T08:52:36.786Z,14.22
2019-04-30T08:53:38.630Z,15.61
2019-04-30T08:54:36.756Z,14.84
2019-04-30T08:55:36.742Z,15.16
2019-04-30T08:56:38.704Z,15.55
2019-04-30T08:57:36.721Z,14.46
2019-04-30T08:58:38.953Z,15.45
2019-04-30T08:59:36.702Z,15.16
2019-04-30T09:00:38.443Z,16.38
2019-04-30T09:01:38.593Z,17.14
2019-04-30T09:02:36.684Z,17.42
2019-04-30T09:03:36.694Z,15.04
2019-04-30T09:04:36.645Z,14.84
2019-04-30T09:05:38.533Z,15.92
2019-04-30T09:06:38.682Z,15.13
2019-04-30T09:07:38.660Z,14.55
2019-04-30T09:08:36.618Z,15.04
2019-04-30T09:09:36.647Z,15.05
2019-04-30T09:10:36.595Z,15.17
2019-04-30T09:11:50.039Z,16.67
2019-04-30T09:12:37.570Z,16.36
2019-04-30T09:13:36.554Z,15.84
2019-04-30T09:14:36.550Z,15.73
2019-04-30T09:15:36.558Z,14.45
2019-04-30T09:16:36.587Z,14.25
2019-04-30T09:17:38.539Z,15.34
2019-04-30T09:18:36.525Z,15.54
2019-04-30T09:19:38.575Z,15.32
2019-04-30T09:20:36.501Z,13.77
2019-04-30T09:21:38.592Z,14.56
2019-04-30T09:22:36.478Z,14.25
2019-04-30T09:23:47.387Z,14.74
2019-04-30T09:24:39.162Z,14.55
2019-04-30T09:25:36.463Z,14.17
2019-04-30T09:26:36.434Z,14.55
2019-04-30T09:27:36.439Z,13.95
2019-04-30T09:28:36.427Z,13.85
2019-04-30T09:29:36.432Z,14.43
2019-04-30T09:30:38.559Z,14.34
2019-04-30T09:31:36.404Z,13.26
2019-04-30T09:32:36.378Z,14.15
2019-04-30T09:33:36.364Z,14.55
2019-04-30T09:34:36.394Z,13.87
2019-04-30T09:35:36.352Z,15.14
2019-04-30T09:36:36.330Z,15.02
2019-04-30T09:37:36.331Z,14.51
2019-04-30T09:38:36.314Z,12.74
2019-04-30T09:39:36.318Z,11.57
2019-04-30T09:40:36.349Z,12.76
2019-04-30T09:41:36.298Z,13.28
2019-04-30T09:42:36.286Z,15.17
2019-04-30T09:43:36.278Z,14.57
2019-04-30T09:44:36.262Z,14.58
2019-04-30T09:45:36.270Z,15.36
2019-04-30T09:46:36.243Z,14.27
2019-04-30T09:47:36.228Z,14.16
2019-04-30T09:48:36.227Z,14.25
2019-04-30T09:49:36.221Z,13.26
2019-04-30T09:50:36.476Z,12.79
2019-04-30T09:51:36.211Z,12.70
2019-04-30T09:52:37.371Z,13.01
2019-04-30T09:53:36.188Z,14.20
2019-04-30T09:54:36.349Z,13.11
2019-04-30T09:55:36.162Z,14.09
2019-04-30T09:56:36.170Z,14.37
2019-04-30T09:57:36.137Z,12.99
2019-04-30T09:58:36.123Z,13.29
2019-04-30T09:59:36.118Z,13.31
2019-04-30T10:00:36.113Z,13.01
2019-04-30T10:01:36.140Z,13.51
2019-04-30T10:02:36.098Z,14.09
2019-04-30T10:03:36.949Z,13.40
2019-04-30T10:04:36.518Z,13.28
2019-04-30T10:05:36.060Z,13.76
2019-04-30T10:06:40.036Z,12.48
2019-04-30T10:07:36.107Z,11.10
2019-04-30T10:08:46.130Z,12.01
2019-04-30T10:09:37.030Z,12.41
2019-04-30T10:10:36.011Z,13.10
2019-04-30T10:11:36.020Z,12.81
2019-04-30T10:12:36.001Z,13.87
2019-04-30T10:13:36.003Z,12.68
2019-04-30T10:14:35.989Z,12.01
2019-04-30T10:15:35.972Z,13.21
2019-04-30T10:16:35.970Z,13.51
2019-04-30T10:17:35.939Z,13.40
2019-04-30T10:18:35.939Z,13.20
2019-04-30T10:19:35.920Z,14.98
2019-04-30T10:20:35.920Z,14.07
2019-04-30T10:21:35.930Z,12.70
2019-04-30T10:22:35.895Z,12.41
2019-04-30T10:23:35.882Z,12.81
2019-04-30T10:24:35.880Z,13.09
2019-04-30T10:25:35.876Z,12.89
2019-04-30T10:26:35.895Z,13.37
2019-04-30T10:27:35.851Z,11.71
2019-04-30T10:28:35.853Z,11.52
2019-04-30T10:29:35.833Z,12.40
2019-04-30T10:30:35.810Z,13.08
2019-04-30T10:31:35.811Z,11.30
2019-04-30T10:32:35.841Z,11.69
2019-04-30T10:33:35.792Z,11.50
2019-04-30T10:34:35.803Z,11.99
2019-04-30T10:35:35.785Z,11.70
2019-04-30T10:36:35.755Z,11.61
2019-04-30T10:37:35.743Z,12.49
2019-04-30T10:38:35.760Z,12.80
2019-04-30T10:39:35.757Z,12.71
2019-04-30T10:40:35.716Z,12.40
2019-04-30T10:41:35.709Z,12.79
2019-04-30T10:42:35.699Z,13.35
2019-04-30T10:43:35.707Z,12.36
2019-04-30T10:44:35.686Z,12.74
2019-04-30T10:45:35.700Z,11.37
2019-04-30T10:46:35.679Z,11.76
2019-04-30T10:47:35.685Z,11.96
2019-04-30T10:48:35.643Z,12.05
2019-04-30T10:55:35.612Z,12.55
2019-04-30T10:56:35.567Z,11.55
2019-04-30T10:57:35.555Z,11.83
2019-04-30T10:58:35.557Z,11.44
2019-04-30T10:59:35.540Z,11.54
2019-04-30T11:00:35.540Z,11.72
2019-04-30T11:01:35.547Z,10.94
2019-04-30T11:02:35.531Z,11.23
2019-04-30T11:03:35.501Z,10.74
2019-04-30T11:04:35.505Z,11.71
2019-04-30T11:05:35.509Z,10.64
2019-04-30T11:06:35.485Z,10.25
2019-04-30T11:07:35.505Z,11.04
2019-04-30T11:08:35.458Z,11.72
2019-04-30T11:09:35.446Z,10.16
2019-04-30T11:10:35.447Z,10.36
2019-04-30T11:11:35.440Z,10.45
2019-04-30T11:12:35.429Z,10.25
2019-04-30T11:13:35.430Z,10.25
2019-04-30T11:14:35.399Z,10.55
2019-04-30T11:15:35.396Z,9.29
2019-04-30T11:16:35.419Z,9.87
2019-04-30T11:17:35.642Z,10.45
2019-04-30T11:18:35.552Z,10.36
2019-04-30T11:19:35.433Z,9.39
2019-04-30T11:20:35.488Z,11.15
2019-04-30T11:21:35.552Z,11.44
2019-04-30T11:22:35.506Z,10.94
2019-04-30T11:23:35.443Z,10.35
2019-04-30T11:24:38.059Z,9.56
2019-04-30T11:25:37.143Z,9.45
2019-04-30T11:26:35.738Z,9.56
2019-04-30T11:27:35.909Z,9.75
2019-04-30T11:28:35.492Z,9.17
2019-04-30T11:29:35.432Z,9.66
2019-04-30T11:30:35.428Z,9.47
2019-04-30T11:31:35.418Z,9.17
2019-04-30T11:32:35.445Z,9.85
2019-04-30T11:33:35.383Z,9.86
2019-04-30T11:34:35.221Z,9.28
2019-04-30T11:35:35.240Z,9.58
2019-04-30T11:36:35.208Z,9.97
2019-04-30T11:37:35.214Z,10.39
2019-04-30T11:38:35.198Z,10.81
2019-04-30T11:39:35.181Z,11.70
2019-04-30T11:40:39.288Z,11.92
2019-04-30T11:41:35.191Z,12.70
2019-04-30T11:42:35.175Z,11.61
2019-04-30T11:43:35.159Z,11.30
2019-04-30T11:44:35.129Z,11.88
2019-04-30T11:45:35.135Z,10.49
2019-04-30T11:46:35.151Z,10.60
2019-04-30T11:47:35.104Z,11.28
2019-04-30T11:48:35.107Z,10.68
2019-04-30T11:49:35.106Z,10.18
2019-04-30T11:50:35.092Z,11.65
2019-04-30T11:51:35.096Z,10.56
2019-04-30T11:52:35.089Z,10.65
2019-04-30T11:53:35.051Z,10.45
2019-04-30T11:54:35.043Z,9.38
2019-04-30T11:55:35.047Z,9.19
2019-04-30T11:56:35.038Z,9.78
2019-04-30T11:57:35.028Z,9.39
2019-04-30T11:58:35.030Z,9.58
2019-04-30T11:59:34.999Z,9.57
2019-04-30T12:00:35.003Z,8.69
2019-04-30T12:01:34.989Z,9.08
2019-04-30T12:02:34.990Z,9.85
2019-04-30T12:03:34.997Z,9.67
2019-04-30T12:04:34.950Z,9.29
2019-04-30T12:05:34.941Z,10.29
2019-04-30T12:06:34.931Z,10.60
2019-04-30T12:07:34.926Z,10.98
2019-04-30T12:08:34.956Z,10.99
2019-04-30T12:09:34.909Z,10.82
2019-04-30T12:10:34.905Z,11.70
2019-04-30T12:11:34.908Z,11.69
2019-04-30T12:12:34.877Z,11.69
2019-04-30T12:13:34.895Z,10.80
2019-04-30T12:14:34.873Z,10.89
2019-04-30T12:15:34.869Z,10.31
2019-04-30T12:16:34.852Z,9.21
2019-04-30T12:17:34.841Z,9.99
2019-04-30T12:18:34.853Z,9.70
2019-04-30T12:19:34.825Z,9.80
2019-04-30T12:20:34.819Z,10.50
2019-04-30T12:21:34.811Z,10.51
2019-04-30T12:22:34.786Z,10.91
2019-04-30T12:23:34.806Z,10.51
2019-04-30T12:24:34.788Z,10.63
2019-04-30T12:25:34.763Z,12.04
2019-04-30T12:26:34.743Z,12.84
2019-04-30T12:27:34.734Z,12.74
2019-04-30T12:28:34.737Z,12.75
2019-04-30T12:29:34.741Z,11.68
2019-04-30T12:30:34.709Z,13.18
2019-04-30T12:31:34.694Z,14.50
2019-04-30T12:32:35.276Z,14.71
2019-04-30T12:33:34.702Z,15.12
2019-04-30T12:34:34.680Z,15.23
2019-04-30T12:35:34.661Z,15.94
2019-04-30T12:36:34.639Z,16.66
2019-04-30T12:37:34.631Z,16.27
2019-04-30T12:38:34.643Z,17.39
2019-04-30T12:39:34.613Z,17.30
2019-04-30T12:40:34.605Z,16.80
2019-04-30T12:41:34.600Z,16.52
2019-04-30T12:42:34.589Z,18.93
2019-04-30T12:43:34.595Z,19.53
2019-04-30T12:44:34.608Z,19.04
2019-04-30T12:45:34.544Z,20.04
2019-04-30T12:46:34.537Z,20.14
2019-04-30T12:47:34.535Z,19.45
2019-04-30T12:48:34.512Z,20.84
2019-04-30T12:49:34.511Z,20.25
2019-04-30T12:50:34.494Z,20.14
2019-04-30T12:51:45.252Z,20.64
2019-04-30T12:52:35.479Z,19.84
2019-04-30T12:53:34.484Z,20.25
2019-04-30T12:54:34.458Z,20.03
2019-04-30T12:55:34.446Z,19.53
2019-04-30T12:56:34.425Z,19.83
2019-04-30T12:57:34.418Z,19.74
2019-04-30T12:58:34.429Z,20.15
2019-04-30T12:59:34.390Z,20.56